Hwy 5 at Elkhorn Atmospheric Data: 08/13/2022 Summary  Detailed Graphs  Station List

  Temperature     Wind Precipitation Visibility
Timestamp Air Wet
Bulb
Dew-
point
24-hr
Max
24-hr
Min
Relative
Humidity
Atmospheric
Pressure
Avg
Speed
Avg
Dir
Spot
Speed
Spot
Dir
Max
Speed
Max
Dir
  Rate Situation Start End 1 hr 3 hr 6 hr 12 hr 24 hr   Situation
Date Time °F °F °F °F °F % in Hg mph ° mph ° mph ° Y/N in/hr text Date Time Date Time in in in in in mi text
08/13/2022 12:00 AM 64.22 57.38 52.52 95.18 58.64 66.0 Not Reported 9.40 SE 9.17 SE 10.29 SE No 0.000 No Precipitation     0.000 0.000 0.000 0.000 0.000 2.06 Clear
08/13/2022 12:15 AM 64.40 57.74 53.06 95.18 58.64 67.0 Not Reported 10.29 SE 7.38 SE 10.07 SE No 0.000 No Precipitation     0.000 0.000 0.000 0.000 0.000 2.02 Clear
08/13/2022 12:30 AM 64.40 57.92 53.60 95.18 58.64 68.0 Not Reported 9.84 SE 8.50 SE 12.08 SE No 0.000 No Precipitation     0.000 0.000 0.000 0.000 0.000 2.02 Clear
08/13/2022 12:45 AM 64.04 57.74 53.60 95.18 58.64 69.0 Not Reported 10.07 SE 10.07 SE 10.96 SE No 0.000 No Precipitation     0.000 0.000 0.000 0.000 0.000 2.04 Clear
08/13/2022 01:00 AM 63.86 58.10 54.14 95.18 58.64 71.0 Not Reported 9.62 SE 9.84 SE 11.63 SE No 0.000 No Precipitation     0.000 0.000 0.000 0.000 0.000 2.02 Clear
08/13/2022 01:15 AM 63.32 57.74 54.14 95.18 58.64 72.0 Not Reported 8.95 SE 9.40 SE 10.96 SE No 0.000 No Precipitation     0.000 0.000 0.000 0.000 0.000 1.98 Clear
08/13/2022 01:30 AM 63.50 57.74 53.78 95.18 58.64 71.0 Not Reported 10.29 SE 10.51 SE 11.63 SE No 0.000 No Precipitation     0.000 0.000 0.000 0.000 0.000 1.98 Clear
08/13/2022 01:45 AM 63.14 57.56 53.96 95.18 58.64 72.0 Not Reported 8.72 SE 8.95 SE 10.74 SE No 0.000 No Precipitation     0.000 0.000 0.000 0.000 0.000 1.95 Clear
08/13/2022 02:00 AM 62.78 57.20 53.60 95.18 58.64 72.0 Not Reported 8.05 SE 8.28 SE 9.40 SE No 0.000 No Precipitation     0.000 0.000 0.000 0.000 0.000 1.92 Clear
08/13/2022 02:15 AM 62.24 57.20 53.78 95.18 58.64 74.0 Not Reported 7.61 SE 7.38 SE 9.17 SE No 0.000 No Precipitation     0.000 0.000 0.000 0.000 0.000 1.96 Clear
08/13/2022 02:30 AM 61.88 57.02 53.78 95.18 58.64 75.0 Not Reported 8.95 SE 8.50 SE 8.50 S No 0.000 No Precipitation     0.000 0.000 0.000 0.000 0.000 1.89 Clear
08/13/2022 02:45 AM 61.34 57.02 53.96 95.18 58.64 77.0 Not Reported 7.38 SE 7.38 SE 9.62 SE No 0.000 No Precipitation     0.000 0.000 0.000 0.000 0.000 1.89 Clear
08/13/2022 03:00 AM 60.98 56.84 53.96 95.18 58.64 78.0 Not Reported 8.05 SE 8.50 SE 8.72 SE No 0.000 No Precipitation     0.000 0.000 0.000 0.000 0.000 1.86 Clear
08/13/2022 03:15 AM 60.80 56.66 53.78 95.18 58.64 78.0 Not Reported 7.83 SE 6.93 SE 8.72 SE No 0.000 No Precipitation     0.000 0.000 0.000 0.000 0.000 1.85 Clear
08/13/2022 03:30 AM 60.44 56.48 53.78 95.18 58.64 79.0 Not Reported 7.83 SE 6.04 SE 8.50 SE No 0.000 No Precipitation     0.000 0.000 0.000 0.000 0.000 1.83 Clear
08/13/2022 03:45 AM 60.44 56.66 54.14 95.18 58.64 80.0 Not Reported 9.40 SE 9.40 S 8.50 SE No 0.000 No Precipitation     0.000 0.000 0.000 0.000 0.000 1.79 Clear
08/13/2022 04:00 AM 60.44 56.66 54.14 95.18 58.64 80.0 Not Reported 7.61 SE 7.16 SE 10.29 SE No 0.000 No Precipitation     0.000 0.000 0.000 0.000 0.000 1.78 Clear
08/13/2022 04:15 AM 59.54 56.12 53.60 95.18 58.64 81.0 Not Reported 5.82 SE 5.14 SE 8.72 SE No 0.000 No Precipitation     0.000 0.000 0.000 0.000 0.000 1.80 Clear
08/13/2022 04:30 AM 59.36 56.12 53.78 95.18 58.64 82.0 Not Reported 5.82 SE 6.04 SE 6.04 SE No 0.000 No Precipitation     0.000 0.000 0.000 0.000 0.000 1.78 Clear
08/13/2022 04:45 AM 59.36 56.12 53.78 95.18 58.64 82.0 Not Reported 4.25 SE 4.03 SE 6.71 SE No 0.000 No Precipitation     0.000 0.000 0.000 0.000 0.000 1.73 Clear
08/13/2022 05:00 AM 59.18 56.12 53.96 95.18 58.64 83.0 Not Reported 5.37 SE 6.04 SE 5.14 SE No 0.000 No Precipitation     0.000 0.000 0.000 0.000 0.000 1.82 Clear
08/13/2022 05:15 AM 58.10 55.40 53.60 95.18 58.64 85.0 Not Reported 6.93 SE 6.49 SE 7.83 SE No 0.000 No Precipitation     0.000 0.000 0.000 0.000 0.000 1.33 Clear
08/13/2022 05:30 AM 58.28 55.76 53.96 95.18 58.64 86.0 Not Reported 5.82 SE 5.14 SE 7.16 SE No 0.000 No Precipitation     0.000 0.000 0.000 0.000 0.000 1.75 Clear
08/13/2022 05:45 AM 59.00 56.48 54.68 95.18 58.64 86.0 Not Reported 2.01 E 2.68 SE 6.04 SE No 0.000 No Precipitation     0.000 0.000 0.000 0.000 0.000 1.79 Clear
08/13/2022 06:00 AM 59.18 56.48 54.68 95.18 58.64 85.0 Not Reported 4.47 E 4.70 SE 4.25 E No 0.000 No Precipitation     0.000 0.000 0.000 0.000 0.000 1.73 Clear
08/13/2022 06:15 AM 58.28 55.94 54.32 95.18 58.64 87.0 Not Reported 4.47 SE 4.92 SE 5.14 E No 0.000 No Precipitation     0.000 0.000 0.000 0.000 0.000 1.69 Clear
08/13/2022 06:30 AM 58.28 55.76 53.96 95.18 58.64 86.0 Not Reported 2.91 SE 2.91 SE 4.25 SE No 0.000 No Precipitation     0.000 0.000 0.000 0.000 0.000 1.66 Clear
08/13/2022 06:45 AM 59.54 56.84 55.04 95.18 58.64 85.0 Not Reported 2.24 E 0.89 E 3.13 S No 0.000 No Precipitation     0.000 0.000 0.000 0.000 0.000 1.67 Clear
08/13/2022 07:00 AM 60.80 57.56 55.58 95.18 58.64 83.0 Not Reported 3.58 E 4.92 E 3.80 E No 0.000 No Precipitation     0.000 0.000 0.000 0.000 0.000 1.70 Clear
08/13/2022 07:15 AM 61.16 57.92 55.94 95.18 58.64 83.0 Not Reported 0.89 E 1.34 NE 4.92 E No 0.000 No Precipitation     0.000 0.000 0.000 0.000 0.000 1.60 Clear
08/13/2022 07:30 AM 62.06 58.46 56.12 95.18 58.64 81.0 Not Reported 0.89 N 0.67 N 1.57 N No 0.000 No Precipitation     0.000 0.000 0.000 0.000 0.000 1.68 Clear
08/13/2022 07:45 AM 61.70 58.10 55.76 95.18 58.64 81.0 Not Reported 1.12 S 0.00 SW 2.68 E No 0.000 No Precipitation     0.000 0.000 0.000 0.000 0.000 1.69 Clear
08/13/2022 08:00 AM 62.60 58.64 56.30 95.18 58.64 80.0 Not Reported 0.22 SW 0.00 S 0.89 S No 0.000 No Precipitation     0.000 0.000 0.000 0.000 0.000 1.79 Clear
08/13/2022 08:15 AM 64.76 59.72 56.66 95.18 58.64 75.0 Not Reported 0.67 NE 1.34 N 2.91 S No 0.000 No Precipitation     0.000 0.000 0.000 0.000 0.000 1.80 Clear
08/13/2022 08:30 AM 66.02 60.26 56.66 95.18 58.64 72.0 Not Reported 1.34 NE 2.24 N 2.46 NE No 0.000 No Precipitation     0.000 0.000 0.000 0.000 0.000 1.78 Clear
08/13/2022 08:45 AM 66.38 60.62 57.02 95.18 58.64 72.0 Not Reported 1.34 N 3.36 NE 2.24 N No 0.000 No Precipitation     0.000 0.000 0.000 0.000 0.000 1.80 Clear
08/13/2022 09:00 AM 66.56 60.80 57.20 95.18 58.64 72.0 Not Reported 3.13 NE 1.12 NE 4.25 N No 0.000 No Precipitation     0.000 0.000 0.000 0.000 0.000 1.67 Clear
08/13/2022 09:15 AM 68.90 61.70 57.38 95.18 58.64 67.0 Not Reported 1.12 N 1.57 E 3.80 N No 0.000 No Precipitation     0.000 0.000 0.000 0.000 0.000 1.88 Clear
08/13/2022 09:30 AM 69.62 61.70 56.84 95.18 58.64 64.0 Not Reported 3.36 NE 2.01 NE 4.47 N No 0.000 No Precipitation     0.000 0.000 0.000 0.000 0.000 1.79 Clear
08/13/2022 09:45 AM 70.70 62.42 57.38 95.18 58.64 63.0 Not Reported 1.57 NW 2.91 NE 4.25 NE No 0.000 No Precipitation     0.000 0.000 0.000 0.000 0.000 1.77 Clear
08/13/2022 10:00 AM 72.32 62.78 57.20 95.18 58.64 59.0 Not Reported 3.13 N 2.68 N 3.80 N No 0.000 No Precipitation     0.000 0.000 0.000 0.000 0.000 1.91 Clear
08/13/2022 10:15 AM 74.30 63.50 57.02 95.18 58.64 55.0 Not Reported 1.34 N 2.01 N 4.25 N No 0.000 No Precipitation     0.000 0.000 0.000 0.000 0.000 1.90 Clear
08/13/2022 10:30 AM 77.18 64.40 57.02 95.18 58.64 50.0 Not Reported 2.68 NE 2.46 E 3.80 E No 0.000 No Precipitation     0.000 0.000 0.000 0.000 0.000 1.86 Clear
08/13/2022 10:45 AM 78.80 64.58 56.30 95.18 58.64 46.0 Not Reported 2.68 NE 4.25 NE 5.14 E No 0.000 No Precipitation     0.000 0.000 0.000 0.000 0.000 1.94 Clear
08/13/2022 11:00 AM 80.42 64.58 55.22 95.18 58.64 42.0 Not Reported 2.24 E 1.12 E 4.70 NE No 0.000 No Precipitation     0.000 0.000 0.000 0.000 0.000 2.07 Clear
08/13/2022 11:15 AM 82.22 64.58 53.96 95.18 58.64 38.0 Not Reported 1.57 E 2.24 NE 4.03 NE No 0.000 No Precipitation     0.000 0.000 0.000 0.000 0.000 1.94 Clear
08/13/2022 11:30 AM 82.94 64.58 53.24 95.18 58.64 36.0 Not Reported 2.46 NE 2.46 E 6.49 N No 0.000 No Precipitation     0.000 0.000 0.000 0.000 0.000 2.17 Clear
08/13/2022 11:45 AM 84.74 64.40 51.62 95.18 58.64 32.0 Not Reported 3.36 N 5.14 N 4.70 NE No 0.000 No Precipitation     0.000 0.000 0.000 0.000 0.000 2.05 Clear
08/13/2022 12:00 PM 83.84 64.94 53.24 95.18 58.64 35.0 Not Reported 5.82 N 4.03 N 7.16 N No 0.000 No Precipitation     0.000 0.000 0.000 0.000 0.000 2.05 Clear
08/13/2022 12:15 PM 85.82 64.76 51.62 95.18 58.64 31.0 Not Reported 2.68 N 5.37 N 8.28 N No 0.000 No Precipitation     0.000 0.000 0.000 0.000 0.000 1.95 Clear
08/13/2022 12:30 PM 87.08 65.66 52.70 95.18 58.64 31.0 Not Reported 2.91 NE 1.57 NW 9.17 N No 0.000 No Precipitation     0.000 0.000 0.000 0.000 0.000 2.02 Clear
08/13/2022 12:45 PM 86.54 64.58 50.54 95.18 58.64 29.0 Not Reported 5.59 N 2.24 N 6.93 NE No 0.000 No Precipitation     0.000 0.000 0.000 0.000 0.000 1.85 Clear
08/13/2022 01:00 PM 88.34 65.84 51.98 95.18 58.64 29.0 Not Reported 3.13 NE 5.59 N 6.93 N No 0.000 No Precipitation     0.000 0.000 0.000 0.000 0.000 1.74 Clear
08/13/2022 01:15 PM 90.32 66.38 51.80 95.18 58.64 27.0 Not Reported 3.58 NE 1.79 NE 6.26 N No 0.000 No Precipitation     0.000 0.000 0.000 0.000 0.000 1.85 Clear
08/13/2022 01:30 PM 89.78 66.38 52.34 95.18 58.64 28.0 Not Reported 3.13 N 2.24 NW 5.59 N No 0.000 No Precipitation     0.000 0.000 0.000 0.000 0.000 1.67 Clear
08/13/2022 01:45 PM 91.58 66.74 51.80 95.18 58.64 26.0 Not Reported 4.25 NE 5.14 E 5.59 N No 0.000 No Precipitation     0.000 0.000 0.000 0.000 0.000 1.85 Clear
08/13/2022 02:00 PM 90.86 65.84 50.18 95.18 58.64 25.0 Not Reported 2.68 SE 2.01 N 6.26 NE No 0.000 No Precipitation     0.000 0.000 0.000 0.000 0.000 1.98 Clear
08/13/2022 02:15 PM 92.84 65.84 48.38 95.18 58.64 22.0 Not Reported 3.80 NE 3.58 NE 6.26 NE No 0.000 No Precipitation     0.000 0.000 0.000 0.000 0.000 2.08 Clear
08/13/2022 02:30 PM 94.10 66.20 48.20 95.18 58.64 21.0 Not Reported 6.04 NE 2.68 NE 7.83 E No 0.000 No Precipitation     0.000 0.000 0.000 0.000 0.000 2.01 Clear
08/13/2022 02:45 PM 94.10 66.20 48.20 95.18 58.64 21.0 Not Reported 4.25 NE 4.03 E 7.16 E No 0.000 No Precipitation     0.000 0.000 0.000 0.000 0.000 2.19 Clear
08/13/2022 03:00 PM 96.26 67.10 48.56 95.18 58.64 20.0 Not Reported 1.34 NE 3.58 NE 4.70 NE No 0.000 No Precipitation     0.000 0.000 0.000 0.000 0.000 2.07 Clear
08/13/2022 03:15 PM 95.36 63.50 38.66 95.18 58.64 14.0 Not Reported 3.13 SW 5.14 W 3.58 NE No 0.000 No Precipitation     0.000 0.000 0.000 0.000 0.000 2.16 Clear
08/13/2022 03:30 PM 95.90 64.76 42.44 95.18 58.64 16.0 Not Reported 2.68 SE 2.91 SW 7.16 SW No 0.000 No Precipitation     0.000 0.000 0.000 0.000 0.000 2.03 Clear
08/13/2022 03:45 PM 96.26 66.02 45.86 95.18 58.64 18.0 Not Reported 2.24 NW 6.93 W 4.03 SW No 0.000 No Precipitation     0.000 0.000 0.000 0.000 0.000 1.99 Clear
08/13/2022 04:00 PM 96.08 66.02 45.68 95.18 58.64 18.0 Not Reported 2.91 SW 5.37 W 5.82 SW No 0.000 No Precipitation     0.000 0.000 0.000 0.000 0.000 2.19 Clear
08/13/2022 04:15 PM 97.34 66.20 45.14 95.18 58.64 17.0 Not Reported 2.68 S 2.01 S 5.37 W No 0.000 No Precipitation     0.000 0.000 0.000 0.000 0.000 2.16 Clear
08/13/2022 04:30 PM 95.54 65.12 43.70 95.18 58.64 17.0 Not Reported 7.38 SW 9.40 S 6.49 S No 0.000 No Precipitation     0.000 0.000 0.000 0.000 0.000 2.09 Clear
08/13/2022 04:45 PM 96.62 66.38 46.04 95.18 58.64 18.0 Not Reported 2.01 SW 3.36 NW 9.40 S No 0.000 No Precipitation     0.000 0.000 0.000 0.000 0.000 2.19 Clear
08/13/2022 05:00 PM 96.62 67.28 48.92 95.18 58.64 20.0 Not Reported 6.93 S 10.74 S 8.05 SW No 0.000 No Precipitation     0.000 0.000 0.000 0.000 0.000 2.00 Clear
08/13/2022 05:15 PM 96.08 66.92 48.56 95.18 58.64 20.0 Not Reported 8.28 S 4.25 S 11.63 S No 0.000 No Precipitation     0.000 0.000 0.000 0.000 0.000 2.13 Clear
08/13/2022 05:30 PM 94.82 67.10 50.00 95.18 58.64 22.0 Not Reported 8.50 S 10.74 S 10.07 S No 0.000 No Precipitation     0.000 0.000 0.000 0.000 0.000 2.32 Clear
08/13/2022 05:45 PM 94.10 66.74 49.46 95.18 58.64 22.0 Not Reported 9.40 S 7.38 S 12.30 S No 0.000 No Precipitation     0.000 0.000 0.000 0.000 0.000 2.12 Clear
08/13/2022 06:00 PM 94.64 66.56 48.56 95.18 58.64 21.0 Not Reported 7.16 S 7.83 S 11.63 S No 0.000 No Precipitation     0.000 0.000 0.000 0.000 0.000 2.18 Clear
08/13/2022 06:15 PM 94.10 66.20 48.20 95.18 58.64 21.0 Not Reported 8.72 S 6.04 S 10.51 S No 0.000 No Precipitation     0.000 0.000 0.000 0.000 0.000 2.19 Clear
08/13/2022 06:30 PM 93.56 66.74 50.18 97.34 57.38 23.0 Not Reported 8.05 S 7.38 S 9.84 S No 0.000 No Precipitation     0.000 0.000 0.000 0.000 0.000 2.18 Clear
08/13/2022 06:45 PM 92.84 66.74 50.72 97.34 57.38 24.0 Not Reported 8.95 S 8.50 S 9.84 S No 0.000 No Precipitation     0.000 0.000 0.000 0.000 0.000 2.28 Clear
08/13/2022 07:00 PM 91.40 67.64 53.60 97.34 57.38 28.0 Not Reported 7.61 S 8.72 S 10.74 S No 0.000 No Precipitation     0.000 0.000 0.000 0.000 0.000 2.15 Clear
08/13/2022 07:15 PM 90.14 67.10 53.60 97.34 57.38 29.0 Not Reported 8.05 S 7.16 S 10.51 S No 0.000 No Precipitation     0.000 0.000 0.000 0.000 0.000 2.18 Clear
08/13/2022 07:30 PM 88.34 67.10 54.68 97.34 57.38 32.0 Not Reported 9.62 S 10.29 S 10.29 S No 0.000 No Precipitation     0.000 0.000 0.000 0.000 0.000 2.08 Clear
08/13/2022 07:45 PM 86.18 66.20 54.50 97.34 57.38 34.0 Not Reported 10.07 S 10.51 SE 10.74 S No 0.000 No Precipitation     0.000 0.000 0.000 0.000 0.000 2.15 Clear
08/13/2022 08:00 PM 83.12 64.94 54.14 97.34 57.38 37.0 Not Reported 10.51 SE 9.62 SE 10.74 SE No 0.000 No Precipitation     0.000 0.000 0.000 0.000 0.000 2.08 Clear
08/13/2022 08:15 PM 80.78 63.86 53.42 97.34 57.38 39.0 Not Reported 10.74 SE 10.74 SE 11.41 SE No 0.000 No Precipitation     0.000 0.000 0.000 0.000 0.000 2.09 Clear
08/13/2022 08:30 PM 79.16 63.32 53.42 97.34 57.38 41.0 Not Reported 10.29 S 8.50 SE 12.75 S No 0.000 No Precipitation     0.000 0.000 0.000 0.000 0.000 1.97 Clear
08/13/2022 08:45 PM 77.36 62.60 53.06 97.34 57.38 43.0 Not Reported 9.40 SE 9.40 S 11.41 S No 0.000 No Precipitation     0.000 0.000 0.000 0.000 0.000 1.98 Clear
08/13/2022 09:00 PM 75.56 61.70 52.70 97.34 57.38 45.0 Not Reported 9.62 SE 10.74 S 11.63 S No 0.000 No Precipitation     0.000 0.000 0.000 0.000 0.000 1.99 Clear
08/13/2022 09:15 PM 73.58 60.98 52.70 97.34 57.38 48.0 Not Reported 10.29 SE 8.28 SE 10.74 SE No 0.000 No Precipitation     0.000 0.000 0.000 0.000 0.000 1.99 Clear
08/13/2022 09:30 PM 72.14 60.26 52.34 97.34 57.38 50.0 Not Reported 7.16 SE 6.49 S 10.51 S No 0.000 No Precipitation     0.000 0.000 0.000 0.000 0.000 1.95 Clear
08/13/2022 09:45 PM 70.70 59.54 52.16 97.34 57.38 52.0 Not Reported 8.50 SE 7.61 SE 8.28 S No 0.000 No Precipitation     0.000 0.000 0.000 0.000 0.000 1.89 Clear
08/13/2022 10:00 PM 70.16 59.36 52.16 97.34 57.38 53.0 Not Reported 7.38 S 7.61 S 8.28 SE No 0.000 No Precipitation     0.000 0.000 0.000 0.000 0.000 1.93 Clear
08/13/2022 10:15 PM 68.72 58.64 51.80 97.34 57.38 55.0 Not Reported 6.71 SE 7.61 SE 8.72 S No 0.000 No Precipitation     0.000 0.000 0.000 0.000 0.000 1.91 Clear
08/13/2022 10:30 PM 68.00 58.28 51.62 97.34 57.38 56.0 Not Reported 7.38 S 7.38 S 8.28 SE No 0.000 No Precipitation     0.000 0.000 0.000 0.000 0.000 1.89 Clear
08/13/2022 10:45 PM 67.10 58.10 51.80 97.34 57.38 58.0 Not Reported 7.38 SE 8.28 SE 8.72 SE No 0.000 No Precipitation     0.000 0.000 0.000 0.000 0.000 1.88 Clear
08/13/2022 11:00 PM 66.56 58.10 52.16 97.34 57.38 60.0 Not Reported 8.72 SE 9.62 SE 9.17 SE No 0.000 No Precipitation     0.000 0.000 0.000 0.000 0.000 1.88 Clear
08/13/2022 11:15 PM 66.92 58.10 52.16 97.34 57.38 59.0 Not Reported 8.95 SE 8.50 SE 10.51 SE No 0.000 No Precipitation     0.000 0.000 0.000 0.000 0.000 1.89 Clear
08/13/2022 11:30 PM 65.48 57.74 52.52 97.34 57.38 63.0 Not Reported 8.95 SE 9.17 SE 9.17 SE No 0.000 No Precipitation     0.000 0.000 0.000 0.000 0.000 1.87 Clear
08/13/2022 11:45 PM 65.84 58.10 52.88 97.34 57.38 63.0 Not Reported 8.50 SE 8.50 SE 10.29 SE No 0.000 No Precipitation     0.000 0.000 0.000 0.000 0.000 1.83 Clear